createdAt,value
2019-05-28T00:00:44.993Z,6.73
2019-05-28T00:03:13.437Z,4.90
2019-05-28T00:05:41.945Z,7.83
2019-05-28T00:08:10.434Z,8.97
2019-05-28T00:10:40.067Z,7.07
2019-05-28T00:13:08.581Z,10.33
2019-05-28T00:15:37.043Z,10.00
2019-05-28T00:18:05.605Z,8.20
2019-05-28T00:20:34.153Z,7.30
2019-05-28T00:23:02.662Z,9.53
2019-05-28T00:25:31.187Z,8.17
2019-05-28T00:27:59.755Z,6.73
2019-05-28T00:30:28.236Z,8.37
2019-05-28T00:32:56.742Z,7.37
2019-05-28T00:35:25.264Z,9.10
2019-05-28T00:37:53.786Z,6.80
2019-05-28T00:40:22.353Z,8.00
2019-05-28T00:42:50.900Z,7.30
2019-05-28T00:45:19.524Z,7.47
2019-05-28T00:47:48.132Z,5.70
2019-05-28T00:50:18.452Z,6.83
2019-05-28T00:52:47.011Z,7.33
2019-05-28T00:55:17.041Z,7.57
2019-05-28T00:57:47.332Z,9.37
2019-05-28T01:00:34.262Z,6.80
2019-05-28T01:02:48.753Z,9.10
2019-05-28T01:05:17.370Z,10.47
2019-05-28T01:07:45.831Z,8.30
2019-05-28T01:10:14.745Z,10.63
2019-05-28T01:12:43.220Z,4.70
2019-05-28T01:15:11.936Z,5.97
2019-05-28T01:17:40.420Z,6.13
2019-05-28T01:20:09.340Z,6.43
2019-05-28T01:22:37.830Z,5.17
2019-05-28T01:25:07.332Z,7.83
2019-05-28T01:27:35.800Z,7.50
2019-05-28T01:30:06.716Z,5.80
2019-05-28T01:32:35.295Z,7.97
2019-05-28T01:35:06.802Z,7.17
2019-05-28T01:37:35.276Z,6.67
2019-05-28T01:40:08.217Z,6.23
2019-05-28T01:42:36.772Z,6.47
2019-05-28T01:45:07.006Z,7.13
2019-05-28T01:47:35.473Z,8.53
2019-05-28T01:50:05.702Z,8.60
2019-05-28T01:52:34.212Z,9.53
2019-05-28T01:55:02.940Z,8.37
2019-05-28T01:57:31.473Z,9.17
2019-05-28T01:59:59.934Z,9.40
2019-05-28T02:02:28.590Z,7.60
2019-05-28T02:04:57.120Z,8.30
2019-05-28T02:07:25.613Z,8.07
2019-05-28T02:09:54.105Z,7.90
2019-05-28T02:12:22.561Z,9.23
2019-05-28T02:14:51.056Z,7.53
2019-05-28T02:17:19.538Z,10.00
2019-05-28T02:19:48.011Z,8.30
2019-05-28T02:22:16.449Z,8.97
2019-05-28T02:24:44.884Z,13.53
2019-05-28T02:27:13.405Z,9.57
2019-05-28T02:29:41.880Z,10.43
2019-05-28T02:32:10.373Z,11.17
2019-05-28T02:34:38.870Z,9.63
2019-05-28T02:37:07.389Z,8.60
2019-05-28T02:39:35.857Z,10.53
2019-05-28T02:42:04.559Z,8.30
2019-05-28T02:44:33.057Z,9.30
2019-05-28T02:47:01.521Z,9.17
2019-05-28T02:49:29.991Z,7.23
2019-05-28T02:51:58.690Z,10.07
2019-05-28T02:54:27.474Z,8.37
2019-05-28T02:56:58.086Z,8.03
2019-05-28T02:59:29.382Z,10.83
2019-05-28T03:02:00.578Z,10.27
2019-05-28T03:04:31.171Z,8.47
2019-05-28T03:07:03.069Z,8.73
2019-05-28T03:09:32.489Z,10.30
2019-05-28T03:12:00.971Z,10.37
2019-05-28T03:14:29.461Z,11.40
2019-05-28T03:17:01.110Z,7.70
2019-05-28T03:19:31.151Z,10.47
2019-05-28T03:22:01.970Z,11.73
2019-05-28T03:24:33.348Z,10.90
2019-05-28T03:27:02.064Z,10.80
2019-05-28T03:29:30.568Z,7.80
2019-05-28T03:32:08.785Z,9.77
2019-05-28T03:34:29.330Z,12.13
2019-05-28T03:36:58.954Z,10.20
2019-05-28T03:39:28.247Z,12.13
2019-05-28T03:41:56.728Z,9.77
2019-05-28T03:44:25.221Z,12.93
2019-05-28T03:46:53.700Z,12.83
2019-05-28T03:49:22.204Z,8.33
2019-05-28T03:51:50.758Z,11.63
2019-05-28T03:54:19.303Z,11.90
2019-05-28T03:56:47.767Z,9.73
2019-05-28T03:59:16.260Z,13.33
2019-05-28T04:01:44.729Z,12.07
2019-05-28T04:04:13.240Z,11.47
2019-05-28T04:06:41.788Z,10.90
2019-05-28T04:09:10.266Z,11.33
2019-05-28T04:11:44.923Z,10.37
2019-05-28T04:14:08.973Z,11.70
2019-05-28T04:16:37.441Z,14.03
2019-05-28T04:19:06.119Z,15.23
2019-05-28T04:21:34.586Z,17.13
2019-05-28T04:24:03.102Z,15.47
2019-05-28T04:26:31.633Z,16.67
2019-05-28T04:29:00.101Z,16.83
2019-05-28T04:31:28.596Z,13.00
2019-05-28T04:33:58.366Z,12.50
2019-05-28T04:36:27.034Z,14.17
2019-05-28T04:38:55.538Z,12.83
2019-05-28T04:41:24.076Z,7.47
2019-05-28T04:43:52.547Z,9.07
2019-05-28T04:46:21.067Z,6.13
2019-05-28T04:48:50.158Z,8.23
2019-05-28T04:51:18.640Z,6.27
2019-05-28T04:53:47.181Z,8.67
2019-05-28T04:56:15.667Z,9.20
2019-05-28T04:58:44.232Z,8.37
2019-05-28T05:01:12.799Z,6.53
2019-05-28T05:03:41.332Z,4.73
2019-05-28T05:06:09.805Z,3.60
2019-05-28T05:08:38.303Z,5.17
2019-05-28T05:11:06.773Z,9.00
2019-05-28T05:13:35.260Z,5.43
2019-05-28T05:16:03.754Z,5.27
2019-05-28T05:18:32.236Z,3.13
2019-05-28T05:21:00.769Z,6.40
2019-05-28T05:23:29.263Z,4.67
2019-05-28T05:25:57.750Z,3.43
2019-05-28T05:28:26.218Z,5.43
2019-05-28T05:30:54.773Z,5.87
2019-05-28T05:33:23.234Z,4.57
2019-05-28T05:35:51.712Z,4.93
2019-05-28T05:38:20.274Z,4.80
2019-05-28T05:40:50.364Z,7.77
2019-05-28T05:43:18.806Z,5.27
2019-05-28T05:45:47.299Z,4.97
2019-05-28T05:48:15.835Z,4.73
2019-05-28T05:50:45.293Z,5.87
2019-05-28T05:53:14.017Z,4.10
2019-05-28T05:55:42.585Z,4.73
2019-05-28T05:58:11.066Z,6.17
2019-05-28T06:00:39.537Z,4.17
2019-05-28T06:03:08.019Z,7.90
2019-05-28T06:05:36.576Z,6.07
2019-05-28T06:08:05.175Z,9.13
2019-05-28T06:10:33.781Z,7.00
2019-05-28T06:13:02.305Z,9.40
2019-05-28T06:15:30.808Z,4.80
2019-05-28T06:17:59.491Z,7.43
2019-05-28T06:20:28.020Z,5.57
2019-05-28T06:22:56.511Z,5.50
2019-05-28T06:25:25.114Z,6.53
2019-05-28T06:27:53.919Z,4.07
2019-05-28T06:30:22.850Z,4.63
2019-05-28T06:32:51.317Z,5.93
2019-05-28T06:35:19.521Z,5.03
2019-05-28T06:37:48.094Z,6.73
2019-05-28T06:40:16.884Z,4.10
2019-05-28T06:42:45.566Z,11.40
2019-05-28T06:45:14.691Z,7.03
2019-05-28T06:47:45.394Z,5.87
2019-05-28T06:50:13.942Z,5.80
2019-05-28T06:52:42.512Z,4.83
2019-05-28T06:55:11.510Z,7.60
2019-05-28T06:57:40.107Z,6.80
2019-05-28T07:00:09.135Z,6.97
2019-05-28T07:02:38.064Z,6.50
2019-05-28T07:05:07.788Z,8.17
2019-05-28T07:07:36.353Z,7.53
2019-05-28T07:10:06.371Z,9.43
2019-05-28T07:12:34.944Z,7.00
2019-05-28T07:15:04.363Z,6.40
2019-05-28T07:17:32.865Z,6.17
2019-05-28T07:20:01.429Z,7.87
2019-05-28T07:22:30.047Z,7.77
2019-05-28T07:24:58.630Z,6.50
2019-05-28T07:27:27.213Z,6.87
2019-05-28T07:29:56.987Z,7.20
2019-05-28T07:32:25.543Z,7.17
2019-05-28T07:34:54.040Z,7.40
2019-05-28T07:37:22.548Z,9.10
2019-05-28T07:39:51.018Z,8.30
2019-05-28T07:42:32.202Z,6.83
2019-05-28T07:44:49.719Z,5.33
2019-05-28T07:47:18.226Z,4.30
2019-05-28T07:49:46.689Z,4.10
2019-05-28T07:52:15.176Z,3.63
2019-05-28T07:54:43.680Z,3.93
2019-05-28T07:57:12.244Z,4.53
2019-05-28T07:59:40.810Z,5.47
2019-05-28T08:02:09.375Z,5.97
2019-05-28T08:04:46.860Z,5.03
2019-05-28T08:07:08.178Z,5.53
2019-05-28T08:09:36.709Z,5.53
2019-05-28T08:12:05.267Z,5.17
2019-05-28T08:14:33.820Z,5.17
2019-05-28T08:17:02.386Z,4.87
2019-05-28T08:19:31.026Z,4.70
2019-05-28T08:21:59.526Z,6.27
2019-05-28T08:24:28.157Z,5.23
2019-05-28T08:26:56.693Z,3.80
2019-05-28T08:29:25.174Z,4.60
2019-05-28T08:31:53.681Z,4.47
2019-05-28T08:34:22.212Z,4.27
2019-05-28T08:37:05.237Z,4.43
2019-05-28T08:39:21.089Z,4.70
2019-05-28T08:41:49.782Z,4.10
2019-05-28T08:44:18.270Z,3.93
2019-05-28T08:46:46.840Z,3.70
2019-05-28T08:49:16.560Z,3.50
2019-05-28T08:51:45.227Z,4.47
2019-05-28T08:54:13.835Z,3.23
2019-05-28T08:56:42.497Z,5.70
2019-05-28T08:59:11.063Z,4.07
2019-05-28T09:01:39.574Z,4.00
2019-05-28T09:04:08.107Z,4.00
2019-05-28T09:06:36.614Z,3.63
2019-05-28T09:09:07.129Z,4.33
2019-05-28T09:11:35.698Z,3.23
2019-05-28T09:14:04.357Z,3.23
2019-05-28T09:16:33.301Z,4.20
2019-05-28T09:19:01.929Z,3.70
2019-05-28T09:21:30.423Z,3.37
2019-05-28T09:23:58.914Z,3.10
2019-05-28T09:26:27.507Z,3.90
2019-05-28T09:28:56.164Z,4.67
2019-05-28T09:31:24.779Z,3.63
2019-05-28T09:33:53.394Z,3.90
2019-05-28T09:36:22.024Z,5.33
2019-05-28T09:38:50.590Z,3.30
2019-05-28T09:41:19.176Z,4.27
2019-05-28T09:43:47.737Z,3.20
2019-05-28T09:46:16.216Z,2.80
2019-05-28T09:48:44.982Z,3.03
2019-05-28T09:51:13.818Z,3.23
2019-05-28T09:53:42.495Z,4.07
2019-05-28T09:56:11.058Z,2.73
2019-05-28T09:58:39.693Z,2.20
2019-05-28T10:01:08.642Z,1.90
2019-05-28T10:03:37.224Z,1.60
2019-05-28T10:06:16.392Z,2.30
2019-05-28T10:08:35.959Z,1.40
2019-05-28T10:11:04.609Z,1.53
2019-05-28T10:13:38.963Z,2.90
2019-05-28T10:16:03.547Z,1.93
2019-05-28T10:18:33.011Z,1.83
2019-05-28T10:21:17.123Z,1.90
2019-05-28T10:23:32.061Z,1.60
2019-05-28T10:26:00.633Z,1.87
2019-05-28T10:28:29.181Z,1.40
2019-05-28T10:30:57.730Z,1.73
2019-05-28T10:33:26.573Z,1.70
2019-05-28T10:35:55.253Z,2.10
2019-05-28T10:38:23.829Z,2.57
2019-05-28T10:40:52.440Z,2.57
2019-05-28T10:43:20.979Z,2.07
2019-05-28T10:45:49.607Z,2.33
2019-05-28T10:48:18.544Z,3.23
2019-05-28T10:50:47.176Z,3.27
2019-05-28T10:53:15.798Z,2.97
2019-05-28T10:55:44.352Z,2.13
2019-05-28T10:58:12.970Z,2.90
2019-05-28T11:00:41.495Z,4.13
2019-05-28T11:03:10.144Z,3.30
2019-05-28T11:05:38.703Z,2.97
2019-05-28T11:08:07.235Z,2.70
2019-05-28T11:10:35.717Z,2.07
2019-05-28T11:13:04.813Z,1.90
2019-05-28T11:15:33.329Z,2.50
2019-05-28T11:18:01.823Z,2.53
2019-05-28T11:20:31.537Z,2.50
2019-05-28T11:23:00.435Z,2.80
2019-05-28T11:25:28.938Z,2.33
2019-05-28T11:27:57.791Z,2.80
2019-05-28T11:30:26.567Z,4.20
2019-05-28T11:32:55.096Z,2.13
2019-05-28T11:35:23.798Z,3.50
2019-05-28T11:37:52.311Z,2.80
2019-05-28T11:40:21.090Z,3.37
2019-05-28T11:42:49.584Z,3.53
2019-05-28T11:45:19.085Z,3.93
2019-05-28T11:47:50.660Z,3.63
2019-05-28T11:50:18.080Z,2.90
2019-05-28T11:52:46.643Z,3.30
2019-05-28T11:55:16.144Z,3.70
2019-05-28T11:57:44.628Z,3.57
2019-05-28T12:00:13.951Z,3.53
2019-05-28T12:02:42.522Z,3.30
2019-05-28T12:05:11.840Z,2.27
2019-05-28T12:07:40.384Z,2.40
2019-05-28T12:10:09.902Z,2.03
2019-05-28T12:12:40.174Z,2.40
2019-05-28T12:15:13.404Z,2.70
2019-05-28T12:17:45.071Z,2.57
2019-05-28T12:20:14.299Z,2.10
2019-05-28T12:22:43.077Z,2.30
2019-05-28T12:25:12.368Z,2.20
2019-05-28T12:27:40.926Z,2.00
2019-05-28T12:30:11.573Z,2.20
2019-05-28T12:32:40.130Z,2.10
2019-05-28T12:35:26.472Z,2.53
2019-05-28T12:37:47.873Z,2.03
2019-05-28T12:40:09.715Z,2.27
2019-05-28T12:42:38.328Z,2.60
2019-05-28T12:45:11.589Z,2.67
2019-05-28T12:47:40.234Z,1.93
2019-05-28T12:50:18.861Z,2.27
2019-05-28T12:52:39.961Z,1.80
2019-05-28T12:55:09.259Z,1.77
2019-05-28T12:57:37.849Z,2.67
2019-05-28T13:00:08.302Z,1.23
2019-05-28T13:02:36.890Z,1.23
2019-05-28T13:05:11.108Z,1.70
2019-05-28T13:07:39.663Z,1.50
2019-05-28T13:10:08.991Z,1.57
2019-05-28T13:12:37.476Z,2.00
2019-05-28T13:15:07.095Z,3.20
2019-05-28T13:17:35.692Z,1.40
2019-05-28T13:20:06.193Z,3.80
2019-05-28T13:22:34.695Z,1.87
2019-05-28T13:25:04.996Z,2.03
2019-05-28T13:27:33.477Z,2.97
2019-05-28T13:30:02.201Z,1.90
2019-05-28T13:32:30.985Z,1.93
2019-05-28T13:34:59.743Z,2.27
2019-05-28T13:37:28.310Z,2.63
2019-05-28T13:39:56.819Z,1.80
2019-05-28T13:42:25.373Z,3.37
2019-05-28T13:44:53.951Z,1.70
2019-05-28T13:47:33.144Z,2.47
2019-05-28T13:49:52.666Z,2.10
2019-05-28T13:52:21.200Z,2.80
2019-05-28T13:54:49.756Z,3.03
2019-05-28T13:57:18.299Z,5.63
2019-05-28T13:59:46.791Z,3.57
2019-05-28T14:02:15.402Z,2.23
2019-05-28T14:04:43.972Z,3.03
2019-05-28T14:07:12.553Z,2.27
2019-05-28T14:09:41.144Z,1.60
2019-05-28T14:12:09.735Z,1.70
2019-05-28T14:14:41.406Z,2.60
2019-05-28T14:17:10.031Z,2.30
2019-05-28T14:19:38.602Z,3.50
2019-05-28T14:22:07.382Z,2.87
2019-05-28T14:24:35.995Z,2.43
2019-05-28T14:27:04.864Z,2.80
2019-05-28T14:29:35.082Z,3.70
2019-05-28T14:32:03.708Z,3.20
2019-05-28T14:34:32.316Z,3.70
2019-05-28T14:37:00.906Z,2.80
2019-05-28T14:39:40.562Z,3.40
2019-05-28T14:42:00.118Z,4.00
2019-05-28T14:44:28.734Z,3.30
2019-05-28T14:46:57.340Z,4.53
2019-05-28T14:49:26.487Z,4.13
2019-05-28T14:51:55.021Z,3.23
2019-05-28T14:54:23.577Z,4.83
2019-05-28T14:56:52.192Z,3.47
2019-05-28T14:59:20.730Z,4.90
2019-05-28T15:01:49.614Z,3.93
2019-05-28T15:04:18.099Z,3.90
2019-05-28T15:06:46.576Z,4.93
2019-05-28T15:09:20.986Z,3.37
2019-05-28T15:11:45.396Z,4.67
2019-05-28T15:14:13.934Z,4.47
2019-05-28T15:16:42.522Z,4.03
2019-05-28T15:19:11.065Z,4.43
2019-05-28T15:21:39.666Z,3.90
2019-05-28T15:24:08.226Z,6.37
2019-05-28T15:26:36.766Z,4.83
2019-05-28T15:29:05.284Z,4.53
2019-05-28T15:31:33.777Z,5.20
2019-05-28T15:34:02.321Z,5.33
2019-05-28T15:36:30.793Z,4.70
2019-05-28T15:38:59.387Z,4.50
2019-05-28T15:41:27.986Z,3.97
2019-05-28T15:43:56.510Z,4.33
2019-05-28T15:46:25.026Z,3.70
2019-05-28T15:48:53.556Z,4.67
2019-05-28T15:51:22.131Z,5.57
2019-05-28T15:53:50.617Z,5.13
2019-05-28T15:56:20.828Z,4.97
2019-05-28T15:58:49.423Z,5.43
2019-05-28T16:01:17.989Z,6.33
2019-05-28T16:03:46.541Z,5.27
2019-05-28T16:06:15.199Z,5.30
2019-05-28T16:08:43.706Z,5.47
2019-05-28T16:11:12.195Z,3.90
2019-05-28T16:13:40.881Z,6.50
2019-05-28T16:16:09.566Z,7.17
2019-05-28T16:18:38.035Z,4.00
2019-05-28T16:21:06.571Z,5.10
2019-05-28T16:23:35.144Z,8.03
2019-05-28T16:26:03.618Z,4.53
2019-05-28T16:28:32.148Z,3.77
2019-05-28T16:31:11.764Z,4.53
2019-05-28T16:33:30.910Z,3.13
2019-05-28T16:35:59.385Z,7.67
2019-05-28T16:38:27.960Z,3.03
2019-05-28T16:40:56.447Z,4.17
2019-05-28T16:43:24.913Z,4.10
2019-05-28T16:45:53.431Z,3.30
2019-05-28T16:48:22.045Z,5.63
2019-05-28T16:50:50.655Z,4.37
2019-05-28T16:53:38.477Z,4.87
2019-05-28T16:56:06.974Z,4.17
2019-05-28T16:58:35.518Z,5.47
2019-05-28T17:01:21.253Z,3.47
2019-05-28T17:03:34.361Z,4.43
2019-05-28T17:06:02.868Z,3.70
2019-05-28T17:08:31.679Z,2.17
2019-05-28T17:11:00.288Z,6.33
2019-05-28T17:13:28.817Z,3.57
2019-05-28T17:15:57.375Z,3.77
2019-05-28T17:18:26.020Z,3.80
2019-05-28T17:20:54.801Z,4.90
2019-05-28T17:23:23.334Z,2.57
2019-05-28T17:25:51.886Z,4.33
2019-05-28T17:28:20.389Z,4.83
2019-05-28T17:30:49.122Z,2.97
2019-05-28T17:33:17.684Z,5.33
2019-05-28T17:35:46.195Z,4.40
2019-05-28T17:38:14.850Z,2.13
2019-05-28T17:40:48.589Z,5.53
2019-05-28T17:43:13.700Z,3.80
2019-05-28T17:45:43.254Z,2.20
2019-05-28T17:48:11.749Z,3.43
2019-05-28T17:50:40.300Z,3.63
2019-05-28T17:53:08.883Z,3.83
2019-05-28T17:55:37.438Z,2.97
2019-05-28T17:58:05.978Z,2.10
2019-05-28T18:00:34.778Z,2.40
2019-05-28T18:03:03.340Z,4.27
2019-05-28T18:05:31.821Z,2.67
2019-05-28T18:08:00.388Z,3.73
2019-05-28T18:10:29.044Z,2.10
2019-05-28T18:12:57.579Z,3.87
2019-05-28T18:15:26.439Z,3.20
2019-05-28T18:17:54.906Z,3.13
2019-05-28T18:20:23.503Z,2.63
2019-05-28T18:22:52.075Z,3.60
2019-05-28T18:25:20.900Z,2.17
2019-05-28T18:27:49.509Z,2.37
2019-05-28T18:30:18.188Z,1.50
2019-05-28T18:32:46.730Z,4.50
2019-05-28T18:35:15.567Z,1.67
2019-05-28T18:37:44.150Z,3.60
2019-05-28T18:40:13.763Z,4.40
2019-05-28T18:42:42.313Z,3.17
2019-05-28T18:45:12.624Z,2.87
2019-05-28T18:47:41.215Z,2.53
2019-05-28T18:50:10.310Z,3.53
2019-05-28T18:52:38.943Z,3.97
2019-05-28T18:55:07.833Z,2.30
2019-05-28T18:57:36.399Z,3.00
2019-05-28T19:00:07.135Z,4.33
2019-05-28T19:02:35.622Z,2.53
2019-05-28T19:05:06.344Z,3.80
2019-05-28T19:07:34.926Z,4.03
2019-05-28T19:10:04.645Z,2.13
2019-05-28T19:12:33.294Z,2.13
2019-05-28T19:15:01.798Z,4.70
2019-05-28T19:17:30.329Z,2.33
2019-05-28T19:19:58.839Z,3.20
2019-05-28T19:22:27.395Z,2.00
2019-05-28T19:24:57.380Z,1.50
2019-05-28T19:27:26.049Z,2.40
2019-05-28T19:29:54.530Z,2.93
2019-05-28T19:32:23.050Z,2.63
2019-05-28T19:34:51.608Z,2.43
2019-05-28T19:37:20.281Z,4.27
2019-05-28T19:39:48.863Z,3.20
2019-05-28T19:42:17.336Z,3.03
2019-05-28T19:44:45.833Z,3.50
2019-05-28T19:47:16.360Z,6.00
2019-05-28T19:49:44.628Z,3.37
2019-05-28T19:52:13.218Z,3.43
2019-05-28T19:54:41.829Z,4.57
2019-05-28T19:57:10.427Z,5.07
2019-05-28T19:59:39.023Z,2.03
2019-05-28T20:02:07.603Z,3.73
2019-05-28T20:04:36.110Z,1.80
2019-05-28T20:07:07.097Z,6.27
2019-05-28T20:09:35.807Z,2.10
2019-05-28T20:12:12.046Z,3.73
2019-05-28T20:14:34.796Z,3.50
2019-05-28T20:17:03.340Z,3.43
2019-05-28T20:19:35.108Z,5.63
2019-05-28T20:22:02.248Z,2.50
2019-05-28T20:24:31.004Z,4.07
2019-05-28T20:26:59.598Z,3.97
2019-05-28T20:29:28.163Z,3.30
2019-05-28T20:31:56.642Z,2.37
2019-05-28T20:34:25.129Z,2.63
2019-05-28T20:36:53.592Z,2.43
2019-05-28T20:39:22.107Z,5.97
2019-05-28T20:41:50.742Z,4.07
2019-05-28T20:44:19.384Z,2.13
2019-05-28T20:46:47.991Z,3.93
2019-05-28T20:49:16.501Z,1.67
2019-05-28T20:51:45.052Z,3.37
2019-05-28T20:54:13.527Z,2.53
2019-05-28T20:56:42.026Z,4.77
2019-05-28T20:59:10.640Z,3.30
2019-05-28T21:01:39.120Z,4.37
2019-05-28T21:04:07.690Z,5.13
2019-05-28T21:06:36.201Z,2.70
2019-05-28T21:09:06.633Z,4.23
2019-05-28T21:11:35.282Z,2.33
2019-05-28T21:14:03.923Z,1.77
2019-05-28T21:16:32.484Z,3.03
2019-05-28T21:19:01.308Z,2.73
2019-05-28T21:21:29.964Z,3.10
2019-05-28T21:23:58.582Z,1.93
2019-05-28T21:26:27.104Z,2.63
2019-05-28T21:28:56.418Z,4.80
2019-05-28T21:31:25.101Z,3.47
2019-05-28T21:33:54.764Z,4.00
2019-05-28T21:36:23.641Z,1.90
2019-05-28T21:38:53.152Z,4.20
2019-05-28T21:41:21.773Z,2.20
2019-05-28T21:43:50.333Z,8.83
2019-05-28T21:46:18.951Z,2.30
2019-05-28T21:48:47.474Z,4.20
2019-05-28T21:51:16.104Z,3.97
2019-05-28T21:53:46.018Z,1.30
2019-05-28T21:56:14.574Z,3.13
2019-05-28T21:58:43.166Z,2.13
2019-05-28T22:01:14.733Z,5.30
2019-05-28T22:03:43.330Z,1.70
2019-05-28T22:06:12.248Z,3.40
2019-05-28T22:08:41.235Z,2.70
2019-05-28T22:11:09.859Z,1.77
2019-05-28T22:13:38.948Z,4.17
2019-05-28T22:16:08.578Z,3.17
2019-05-28T22:18:37.244Z,2.50
2019-05-28T22:21:05.842Z,3.10
2019-05-28T22:23:34.515Z,4.13
2019-05-28T22:26:03.026Z,1.90
2019-05-28T22:28:31.585Z,1.87
2019-05-28T22:31:00.162Z,3.07
2019-05-28T22:33:28.775Z,2.83
2019-05-28T22:35:57.319Z,2.23
2019-05-28T22:38:25.947Z,3.00
2019-05-28T22:40:54.455Z,5.10
2019-05-28T22:43:31.223Z,3.53
2019-05-28T22:45:53.220Z,3.07
2019-05-28T22:48:21.767Z,3.27
2019-05-28T22:50:50.391Z,2.53
2019-05-28T22:53:18.994Z,3.87
2019-05-28T22:55:47.599Z,5.00
2019-05-28T22:58:16.209Z,3.90
2019-05-28T23:00:44.813Z,4.43
2019-05-28T23:03:13.366Z,4.47
2019-05-28T23:05:42.299Z,3.27
2019-05-28T23:08:10.850Z,2.90
2019-05-28T23:10:39.360Z,4.23
2019-05-28T23:13:08.886Z,4.33
2019-05-28T23:15:37.721Z,3.77
2019-05-28T23:18:07.394Z,3.27
2019-05-28T23:20:36.413Z,2.50
2019-05-28T23:23:05.097Z,3.80
2019-05-28T23:25:33.641Z,3.67
2019-05-28T23:28:03.430Z,4.13
2019-05-28T23:30:32.015Z,2.93
2019-05-28T23:33:00.499Z,5.10
2019-05-28T23:35:29.024Z,4.53
2019-05-28T23:37:57.598Z,3.43
2019-05-28T23:40:26.124Z,7.00
2019-05-28T23:42:54.713Z,6.17
2019-05-28T23:45:23.222Z,4.10
2019-05-28T23:47:51.762Z,4.27
2019-05-28T23:50:20.316Z,5.13
2019-05-28T23:52:48.880Z,3.97
2019-05-28T23:55:18.126Z,3.93
2019-05-28T23:57:46.749Z,4.23
